createdAt,value
2023-05-04T00:00:50.537Z,50.87
2023-05-04T00:03:16.932Z,51.66
2023-05-04T00:05:43.381Z,51.71
2023-05-04T00:08:09.840Z,51.40
2023-05-04T00:10:36.167Z,51.00
2023-05-04T00:13:02.673Z,51.10
2023-05-04T00:15:30.292Z,51.87
2023-05-04T00:17:57.056Z,52.11
2023-05-04T00:20:23.430Z,52.25
2023-05-04T00:22:49.768Z,51.99
2023-05-04T00:25:16.258Z,52.52
2023-05-04T00:27:42.617Z,52.26
2023-05-04T00:30:11.181Z,53.35
2023-05-04T00:32:37.549Z,53.14
2023-05-04T00:35:04.220Z,53.24
2023-05-04T00:37:30.602Z,53.36
2023-05-04T00:39:57.954Z,52.95
2023-05-04T00:42:24.292Z,52.27
2023-05-04T00:44:50.651Z,52.88
2023-05-04T00:47:19.501Z,52.25
2023-05-04T00:49:46.417Z,52.02
2023-05-04T00:52:14.572Z,52.10
2023-05-04T00:54:46.565Z,52.95
2023-05-04T00:57:13.377Z,52.21
2023-05-04T00:59:39.770Z,52.86
2023-05-04T01:02:06.510Z,53.21
2023-05-04T01:04:32.964Z,53.79
2023-05-04T01:07:20.155Z,53.73
2023-05-04T01:10:02.107Z,52.48
2023-05-04T01:12:35.754Z,53.58
2023-05-04T01:15:03.494Z,53.19
2023-05-04T01:17:30.016Z,54.28
2023-05-04T01:19:56.475Z,53.88
2023-05-04T01:22:23.270Z,53.32
2023-05-04T01:24:50.623Z,54.74
2023-05-04T01:27:42.955Z,54.72
2023-05-04T01:30:18.941Z,54.78
2023-05-04T01:32:47.219Z,54.21
2023-05-04T01:35:14.017Z,54.29
2023-05-04T01:37:41.046Z,54.72
2023-05-04T01:40:08.427Z,53.60
2023-05-04T01:42:35.225Z,54.79
2023-05-04T01:45:01.867Z,53.77
2023-05-04T01:47:28.203Z,54.37
2023-05-04T01:49:54.586Z,53.22
2023-05-04T01:52:20.968Z,54.36
2023-05-04T01:54:47.445Z,54.09
2023-05-04T01:57:13.816Z,54.32
2023-05-04T01:59:40.164Z,54.54
2023-05-04T02:02:06.533Z,55.17
2023-05-04T02:04:33.868Z,55.23
2023-05-04T02:07:00.194Z,54.83
2023-05-04T02:09:29.647Z,54.31
2023-05-04T02:11:56.038Z,55.25
2023-05-04T02:14:22.496Z,55.64
2023-05-04T02:16:48.857Z,55.85
2023-05-04T02:19:15.316Z,55.80
2023-05-04T02:21:42.213Z,55.70
2023-05-04T02:24:08.764Z,56.18
2023-05-04T02:26:36.205Z,55.40
2023-05-04T02:29:06.034Z,56.35
2023-05-04T02:31:33.067Z,55.36
2023-05-04T02:34:00.593Z,55.45
2023-05-04T02:36:27.013Z,55.62
2023-05-04T02:38:54.774Z,55.95
2023-05-04T02:41:21.536Z,56.66
2023-05-04T02:43:47.930Z,56.36
2023-05-04T02:46:14.326Z,56.05
2023-05-04T02:48:40.738Z,56.22
2023-05-04T02:51:07.082Z,56.44
2023-05-04T02:53:33.407Z,56.51
2023-05-04T02:55:59.744Z,56.39
2023-05-04T02:58:26.236Z,56.79
2023-05-04T03:00:56.165Z,56.67
2023-05-04T03:03:22.590Z,57.09
2023-05-04T03:05:48.922Z,56.47
2023-05-04T03:08:15.701Z,55.51
2023-05-04T03:10:42.089Z,55.52
2023-05-04T03:13:08.542Z,56.19
2023-05-04T03:15:35.228Z,55.76
2023-05-04T03:18:01.647Z,55.65
2023-05-04T03:20:28.271Z,55.86
2023-05-04T03:22:54.668Z,56.16
2023-05-04T03:25:21.167Z,57.24
2023-05-04T03:27:47.611Z,56.56
2023-05-04T03:30:14.122Z,55.62
2023-05-04T03:32:40.822Z,56.58
2023-05-04T03:35:08.014Z,55.98
2023-05-04T03:37:34.387Z,55.59
2023-05-04T03:40:00.886Z,55.89
2023-05-04T03:42:27.237Z,56.40
2023-05-04T03:44:53.687Z,55.72
2023-05-04T03:47:20.042Z,55.74
2023-05-04T03:49:47.578Z,56.38
2023-05-04T03:52:13.902Z,56.91
2023-05-04T03:54:40.424Z,56.67
2023-05-04T03:57:06.744Z,57.29
2023-05-04T03:59:33.125Z,57.21
2023-05-04T04:02:00.285Z,56.71
2023-05-04T04:04:27.329Z,56.19
2023-05-04T04:06:53.828Z,55.79
2023-05-04T04:09:20.230Z,56.80
2023-05-04T04:11:47.254Z,56.68
2023-05-04T04:14:13.702Z,56.34
2023-05-04T04:16:40.296Z,57.31
2023-05-04T04:19:07.077Z,56.29
2023-05-04T04:21:33.556Z,57.34
2023-05-04T04:24:00.051Z,56.77
2023-05-04T04:26:26.833Z,57.23
2023-05-04T04:28:53.201Z,56.14
2023-05-04T04:31:20.377Z,56.18
2023-05-04T04:33:51.045Z,56.72
2023-05-04T04:36:18.201Z,57.73
2023-05-04T04:38:44.731Z,55.94
2023-05-04T04:41:11.657Z,56.29
2023-05-04T04:43:38.115Z,56.51
2023-05-04T04:46:05.335Z,55.75
2023-05-04T04:48:33.205Z,55.61
2023-05-04T04:50:59.838Z,55.78
2023-05-04T04:53:26.259Z,54.97
2023-05-04T04:55:53.972Z,55.32
2023-05-04T04:58:20.435Z,55.98
2023-05-04T05:00:47.507Z,55.53
2023-05-04T05:03:13.975Z,55.19
2023-05-04T05:05:40.428Z,54.77
2023-05-04T05:08:08.947Z,54.32
2023-05-04T05:10:35.363Z,54.74
2023-05-04T05:13:02.277Z,54.02
2023-05-04T05:15:28.905Z,54.69
2023-05-04T05:17:55.408Z,54.73
2023-05-04T05:20:24.083Z,55.14
2023-05-04T05:22:51.531Z,55.18
2023-05-04T05:25:18.979Z,54.28
2023-05-04T05:27:46.975Z,53.78
2023-05-04T05:30:14.586Z,54.39
2023-05-04T05:32:41.114Z,54.42
2023-05-04T05:35:08.269Z,53.97
2023-05-04T05:37:34.827Z,54.48
2023-05-04T05:40:01.249Z,54.09
2023-05-04T05:42:30.181Z,54.32
2023-05-04T05:44:56.572Z,53.65
2023-05-04T05:47:22.995Z,52.98
2023-05-04T05:49:49.398Z,53.91
2023-05-04T05:52:16.110Z,53.62
2023-05-04T05:54:42.635Z,53.78
2023-05-04T05:57:09.048Z,53.77
2023-05-04T05:59:35.393Z,53.01
2023-05-04T06:02:01.846Z,53.83
2023-05-04T06:04:28.284Z,53.49
2023-05-04T06:06:54.659Z,54.08
2023-05-04T06:09:21.066Z,53.59
2023-05-04T06:11:47.424Z,53.88
2023-05-04T06:14:13.745Z,53.00
2023-05-04T06:16:40.384Z,53.57
2023-05-04T06:19:07.242Z,53.43
2023-05-04T06:21:33.589Z,53.50
2023-05-04T06:23:59.952Z,53.72
2023-05-04T06:26:26.304Z,53.38
2023-05-04T06:28:52.711Z,52.75
2023-05-04T06:31:19.266Z,51.40
2023-05-04T06:33:45.760Z,52.50
2023-05-04T06:36:13.224Z,52.60
2023-05-04T06:38:39.611Z,51.82
2023-05-04T06:41:06.150Z,51.63
2023-05-04T06:43:32.945Z,51.75
2023-05-04T06:46:05.478Z,51.94
2023-05-04T06:48:31.908Z,52.03
2023-05-04T06:51:00.079Z,50.64
2023-05-04T06:53:28.892Z,50.56
2023-05-04T06:55:55.335Z,49.70
2023-05-04T06:58:21.862Z,49.98
2023-05-04T07:00:48.286Z,51.17
2023-05-04T07:03:14.724Z,49.90
2023-05-04T07:05:41.369Z,50.45
2023-05-04T07:08:09.628Z,50.42
2023-05-04T07:10:36.029Z,50.78
2023-05-04T07:13:02.515Z,48.83
2023-05-04T07:15:29.352Z,49.72
2023-05-04T07:17:55.801Z,49.37
2023-05-04T07:20:25.107Z,49.47
2023-05-04T07:22:59.034Z,48.69
2023-05-04T07:25:26.153Z,48.06
2023-05-04T07:27:53.184Z,48.05
2023-05-04T07:30:20.349Z,48.80
2023-05-04T07:32:47.183Z,48.77
2023-05-04T07:35:13.604Z,49.21
2023-05-04T07:37:39.920Z,49.30
2023-05-04T07:40:07.668Z,49.70
2023-05-04T07:42:34.529Z,48.83
2023-05-04T07:45:01.251Z,49.39
2023-05-04T07:47:27.938Z,48.29
2023-05-04T07:49:54.444Z,48.36
2023-05-04T07:52:20.763Z,48.56
2023-05-04T07:54:47.168Z,48.53
2023-05-04T07:57:13.479Z,48.90
2023-05-04T07:59:40.062Z,48.47
2023-05-04T08:02:06.561Z,48.52
2023-05-04T08:04:33.061Z,48.97
2023-05-04T08:06:59.558Z,48.79
2023-05-04T08:09:25.959Z,49.75
2023-05-04T08:11:52.439Z,48.59
2023-05-04T08:14:18.848Z,46.78
2023-05-04T08:16:45.279Z,47.30
2023-05-04T08:19:12.413Z,48.51
2023-05-04T08:21:40.315Z,47.90
2023-05-04T08:24:07.401Z,48.16
2023-05-04T08:26:37.027Z,47.53
2023-05-04T08:29:08.274Z,48.00
2023-05-04T08:31:35.233Z,47.72
2023-05-04T08:34:01.687Z,46.86
2023-05-04T08:36:28.061Z,46.09
2023-05-04T08:38:54.492Z,47.07
2023-05-04T08:41:21.188Z,47.16
2023-05-04T08:43:49.239Z,45.76
2023-05-04T08:46:16.724Z,44.84
2023-05-04T08:48:44.792Z,46.27
2023-05-04T08:51:11.498Z,47.04
2023-05-04T08:53:41.629Z,45.90
2023-05-04T08:56:09.437Z,45.92
2023-05-04T08:58:38.145Z,47.05
2023-05-04T09:01:07.216Z,46.86
2023-05-04T09:03:34.231Z,45.22
2023-05-04T09:06:00.886Z,46.21
2023-05-04T09:08:27.446Z,45.61
2023-05-04T09:10:53.788Z,43.72
2023-05-04T09:13:20.708Z,44.92
2023-05-04T09:15:55.213Z,44.96
2023-05-04T09:18:21.890Z,44.69
2023-05-04T09:20:49.191Z,44.84
2023-05-04T09:23:17.957Z,44.71
2023-05-04T09:25:52.441Z,45.14
2023-05-04T09:28:19.807Z,45.93
2023-05-04T09:30:48.746Z,43.94
2023-05-04T09:33:26.398Z,44.62
2023-05-04T09:35:52.958Z,43.40
2023-05-04T09:38:29.424Z,42.93
2023-05-04T09:40:56.013Z,42.47
2023-05-04T09:43:24.314Z,42.65
2023-05-04T09:45:51.324Z,44.35
2023-05-04T09:48:20.539Z,43.55
2023-05-04T09:50:58.304Z,42.34
2023-05-04T09:53:29.694Z,44.23
2023-05-04T09:56:00.704Z,43.26
2023-05-04T09:58:30.545Z,42.84
2023-05-04T10:00:58.141Z,43.32
2023-05-04T10:03:26.755Z,43.22
2023-05-04T10:05:54.131Z,43.29
2023-05-04T10:08:21.079Z,41.10
2023-05-04T10:10:48.138Z,41.39
2023-05-04T10:13:14.700Z,40.67
2023-05-04T10:15:49.281Z,41.49
2023-05-04T10:18:28.913Z,40.79
2023-05-04T10:21:24.258Z,41.73
2023-05-04T10:24:28.636Z,39.60
2023-05-04T10:27:15.947Z,39.84
2023-05-04T10:29:43.007Z,40.38
2023-05-04T10:32:27.998Z,40.16
2023-05-04T10:35:05.484Z,40.44
2023-05-04T10:37:32.468Z,39.18
2023-05-04T10:39:58.813Z,37.15
2023-05-04T10:42:25.168Z,38.08
2023-05-04T10:44:55.552Z,37.23
2023-05-04T10:47:29.799Z,36.30
2023-05-04T10:50:06.009Z,33.57
2023-05-04T10:52:44.469Z,33.14
2023-05-04T10:55:11.490Z,31.59
2023-05-04T10:57:51.642Z,29.26
2023-05-04T11:00:18.460Z,29.26
2023-05-04T11:02:47.232Z,29.23
2023-05-04T11:05:18.175Z,26.93
2023-05-04T11:07:44.945Z,26.47
2023-05-04T11:10:25.511Z,26.12
2023-05-04T11:12:54.975Z,28.04
2023-05-04T11:15:21.506Z,28.91
2023-05-04T11:17:49.387Z,27.93
2023-05-04T11:20:25.006Z,27.13
2023-05-04T11:22:52.827Z,27.09
2023-05-04T11:25:29.795Z,27.34
2023-05-04T11:27:58.028Z,28.09
2023-05-04T11:30:32.680Z,27.10
2023-05-04T11:33:00.435Z,27.44
2023-05-04T11:35:27.268Z,27.68
2023-05-04T11:37:53.684Z,27.53
2023-05-04T11:40:25.466Z,28.29
2023-05-04T11:42:55.377Z,27.89
2023-05-04T11:45:27.002Z,27.84
2023-05-04T11:47:56.459Z,28.72
2023-05-04T11:50:23.786Z,28.23
2023-05-04T11:52:50.219Z,26.42
2023-05-04T11:55:33.278Z,26.94
2023-05-04T11:58:00.969Z,27.55
2023-05-04T12:00:46.833Z,25.11
2023-05-04T12:03:24.559Z,26.75
2023-05-04T12:05:56.621Z,26.31
2023-05-04T12:08:27.708Z,26.31
2023-05-04T12:11:09.219Z,25.41
2023-05-04T12:13:36.317Z,25.62
2023-05-04T12:16:28.938Z,24.15
2023-05-04T12:19:10.848Z,24.76
2023-05-04T12:21:38.105Z,26.39
2023-05-04T12:24:05.540Z,23.31
2023-05-04T12:26:32.095Z,24.58
2023-05-04T12:28:58.658Z,24.96
2023-05-04T12:31:25.528Z,24.65
2023-05-04T12:33:52.560Z,24.91
2023-05-04T12:36:19.152Z,25.92
2023-05-04T12:38:46.134Z,23.96
2023-05-04T12:41:12.686Z,25.18
2023-05-04T12:43:39.135Z,24.72
2023-05-04T12:46:05.857Z,25.03
2023-05-04T12:48:32.838Z,25.58
2023-05-04T12:51:01.114Z,24.35
2023-05-04T12:53:30.033Z,25.21
2023-05-04T12:55:57.208Z,24.19
2023-05-04T12:58:23.548Z,25.82
2023-05-04T13:00:49.962Z,25.22
2023-05-04T13:03:18.051Z,24.02
2023-05-04T13:05:46.454Z,23.28
2023-05-04T13:08:13.133Z,22.75
2023-05-04T13:10:39.489Z,24.08
2023-05-04T13:13:06.448Z,24.62
2023-05-04T13:15:33.816Z,24.47
2023-05-04T13:18:00.583Z,24.52
2023-05-04T13:20:27.165Z,25.55
2023-05-04T13:22:54.190Z,24.89
2023-05-04T13:25:22.165Z,25.36
2023-05-04T13:27:48.842Z,25.66
2023-05-04T13:30:20.244Z,26.11
2023-05-04T13:32:46.629Z,26.95
2023-05-04T13:35:13.279Z,25.63
2023-05-04T13:37:39.584Z,25.80
2023-05-04T13:40:06.419Z,26.00
2023-05-04T13:42:35.655Z,25.30
2023-05-04T13:45:03.430Z,26.20
2023-05-04T13:47:29.818Z,25.59
2023-05-04T13:49:56.158Z,25.78
2023-05-04T13:52:22.567Z,25.68
2023-05-04T13:54:49.396Z,24.97
2023-05-04T13:57:15.832Z,25.20
2023-05-04T13:59:48.780Z,24.70
2023-05-04T14:02:24.972Z,26.47
2023-05-04T14:04:51.634Z,26.44
2023-05-04T14:07:17.982Z,26.77
2023-05-04T14:09:44.703Z,25.44
2023-05-04T14:12:11.059Z,25.42
2023-05-04T14:14:37.403Z,26.62
2023-05-04T14:17:04.074Z,25.09
2023-05-04T14:19:30.460Z,25.54
2023-05-04T14:21:56.793Z,25.54
2023-05-04T14:24:24.845Z,25.05
2023-05-04T14:26:51.781Z,23.79
2023-05-04T14:29:18.122Z,23.80
2023-05-04T14:31:44.516Z,24.84
2023-05-04T14:34:10.969Z,23.88
2023-05-04T14:36:37.372Z,23.13
2023-05-04T14:39:03.818Z,22.65
2023-05-04T14:41:33.694Z,23.94
2023-05-04T14:44:00.386Z,24.43
2023-05-04T14:46:29.051Z,25.10
2023-05-04T14:48:56.046Z,24.92
2023-05-04T14:51:23.607Z,24.66
2023-05-04T14:53:50.028Z,24.73
2023-05-04T14:56:16.391Z,23.96
2023-05-04T14:58:42.757Z,24.60
2023-05-04T15:01:09.369Z,24.28
2023-05-04T15:03:36.125Z,23.97
2023-05-04T15:06:03.491Z,24.37
2023-05-04T15:08:30.089Z,24.39
2023-05-04T15:10:59.257Z,24.30
2023-05-04T15:13:26.109Z,23.98
2023-05-04T15:15:52.917Z,24.72
2023-05-04T15:18:21.155Z,24.59
2023-05-04T15:20:47.525Z,24.91
2023-05-04T15:23:13.867Z,23.94
2023-05-04T15:25:40.956Z,23.63
2023-05-04T15:28:10.603Z,24.64
2023-05-04T15:30:37.648Z,24.51
2023-05-04T15:33:05.321Z,23.59
2023-05-04T15:35:33.172Z,23.83
2023-05-04T15:38:00.834Z,22.21
2023-05-04T15:40:27.850Z,23.47
2023-05-04T15:42:54.305Z,24.81
2023-05-04T15:45:21.367Z,23.32
2023-05-04T15:47:47.909Z,22.88
2023-05-04T15:50:14.360Z,21.91
2023-05-04T15:52:40.729Z,21.46
2023-05-04T15:55:23.684Z,21.28
2023-05-04T15:57:51.700Z,21.37
2023-05-04T16:00:18.442Z,21.00
2023-05-04T16:02:44.890Z,22.66
2023-05-04T16:05:11.326Z,21.40
2023-05-04T16:07:37.660Z,22.33
2023-05-04T16:10:05.079Z,21.78
2023-05-04T16:12:32.042Z,21.70
2023-05-04T16:14:58.580Z,22.31
2023-05-04T16:17:25.073Z,21.61
2023-05-04T16:19:51.738Z,21.31
2023-05-04T16:22:18.079Z,22.52
2023-05-04T16:24:44.436Z,22.35
2023-05-04T16:27:10.807Z,22.31
2023-05-04T16:29:37.180Z,23.17
2023-05-04T16:32:03.649Z,24.05
2023-05-04T16:34:30.072Z,23.34
2023-05-04T16:36:56.476Z,23.48
2023-05-04T16:39:30.046Z,23.93
2023-05-04T16:41:57.274Z,22.65
2023-05-04T16:44:24.108Z,23.12
2023-05-04T16:46:51.546Z,23.95
2023-05-04T16:49:18.411Z,24.48
2023-05-04T16:51:44.851Z,24.70
2023-05-04T16:54:11.397Z,23.83
2023-05-04T16:56:37.787Z,24.90
2023-05-04T16:59:04.448Z,24.68
2023-05-04T17:01:30.845Z,24.97
2023-05-04T17:03:57.758Z,25.42
2023-05-04T17:06:24.412Z,25.50
2023-05-04T17:08:50.839Z,25.95
2023-05-04T17:11:17.260Z,25.50
2023-05-04T17:13:43.718Z,26.17
2023-05-04T17:16:10.532Z,25.12
2023-05-04T17:18:37.048Z,24.52
2023-05-04T17:21:03.540Z,25.00
2023-05-04T17:23:29.960Z,25.46
2023-05-04T17:25:56.913Z,26.06
2023-05-04T17:28:23.549Z,26.54
2023-05-04T17:30:49.888Z,26.22
2023-05-04T17:33:16.331Z,25.80
2023-05-04T17:35:42.679Z,26.32
2023-05-04T17:38:09.061Z,26.56
2023-05-04T17:40:35.463Z,27.07
2023-05-04T17:43:01.892Z,27.20
2023-05-04T17:45:28.363Z,27.71
2023-05-04T17:47:54.801Z,27.52
2023-05-04T17:50:21.456Z,27.69
2023-05-04T17:52:55.391Z,28.46
2023-05-04T17:55:25.882Z,27.66
2023-05-04T17:57:53.864Z,28.59
2023-05-04T18:00:21.006Z,28.64
2023-05-04T18:02:47.501Z,29.33
2023-05-04T18:05:14.146Z,29.30
2023-05-04T18:07:40.617Z,29.98
2023-05-04T18:10:07.718Z,30.23
2023-05-04T18:12:35.666Z,29.87
2023-05-04T18:15:07.959Z,29.98
2023-05-04T18:17:38.193Z,29.97
2023-05-04T18:20:07.304Z,29.44
2023-05-04T18:22:34.261Z,29.92
2023-05-04T18:25:01.325Z,28.85
2023-05-04T18:27:33.313Z,29.93
2023-05-04T18:30:00.705Z,29.34
2023-05-04T18:32:27.514Z,30.24
2023-05-04T18:34:54.595Z,30.61
2023-05-04T18:37:21.558Z,30.18
2023-05-04T18:39:48.025Z,29.73
2023-05-04T18:42:14.524Z,31.23
2023-05-04T18:44:40.902Z,31.64
2023-05-04T18:47:08.001Z,31.13
2023-05-04T18:49:34.385Z,31.42
2023-05-04T18:52:01.529Z,31.25
2023-05-04T18:54:31.575Z,31.74
2023-05-04T18:56:58.714Z,31.60
2023-05-04T18:59:25.732Z,32.07
2023-05-04T19:01:52.894Z,30.44
2023-05-04T19:04:19.417Z,31.31
2023-05-04T19:06:47.517Z,31.61
2023-05-04T19:09:14.437Z,31.96
2023-05-04T19:11:41.033Z,32.59
2023-05-04T19:14:07.908Z,32.78
2023-05-04T19:16:34.484Z,32.26
2023-05-04T19:19:00.792Z,32.78
2023-05-04T19:21:28.309Z,32.67
2023-05-04T19:23:54.871Z,32.30
2023-05-04T19:26:21.766Z,32.74
2023-05-04T19:28:48.557Z,32.87
2023-05-04T19:31:15.857Z,32.64
2023-05-04T19:33:48.452Z,32.45
2023-05-04T19:36:16.274Z,32.99
2023-05-04T19:38:42.949Z,34.32
2023-05-04T19:41:09.510Z,34.62
2023-05-04T19:43:38.392Z,33.45
2023-05-04T19:46:04.846Z,34.94
2023-05-04T19:48:31.420Z,35.01
2023-05-04T19:50:57.877Z,35.57
2023-05-04T19:53:24.758Z,35.82
2023-05-04T19:55:51.369Z,36.23
2023-05-04T19:58:17.990Z,35.98
2023-05-04T20:00:44.444Z,35.41
2023-05-04T20:03:10.961Z,35.49
2023-05-04T20:05:38.397Z,35.69
2023-05-04T20:08:05.464Z,35.26
2023-05-04T20:10:32.010Z,36.21
2023-05-04T20:12:58.486Z,36.05
2023-05-04T20:15:25.129Z,36.98
2023-05-04T20:17:52.072Z,36.29
2023-05-04T20:20:20.562Z,36.79
2023-05-04T20:22:49.002Z,36.92
2023-05-04T20:25:15.514Z,37.69
2023-05-04T20:27:42.456Z,38.51
2023-05-04T20:30:09.887Z,37.48
2023-05-04T20:32:36.420Z,37.86
2023-05-04T20:35:03.205Z,38.49
2023-05-04T20:37:29.803Z,38.28
2023-05-04T20:39:56.530Z,39.20
2023-05-04T20:42:23.056Z,39.33
2023-05-04T20:44:49.445Z,37.85
2023-05-04T20:47:15.837Z,39.27
2023-05-04T20:49:42.234Z,38.97
2023-05-04T20:52:08.629Z,38.88
2023-05-04T20:54:34.997Z,39.61
2023-05-04T20:57:01.561Z,38.88
2023-05-04T20:59:28.419Z,38.79
2023-05-04T21:01:54.985Z,39.00
2023-05-04T21:04:21.970Z,38.86
2023-05-04T21:06:48.554Z,40.15
2023-05-04T21:09:15.438Z,39.07
2023-05-04T21:11:41.829Z,39.34
2023-05-04T21:14:08.333Z,39.81
2023-05-04T21:16:34.717Z,40.60
2023-05-04T21:19:01.041Z,40.43
2023-05-04T21:21:27.438Z,40.54
2023-05-04T21:23:53.782Z,40.74
2023-05-04T21:26:20.200Z,42.98
2023-05-04T21:28:46.574Z,42.34
2023-05-04T21:31:12.951Z,42.78
2023-05-04T21:33:39.362Z,43.17
2023-05-04T21:36:15.437Z,42.51
2023-05-04T21:38:42.506Z,42.62
2023-05-04T21:41:16.413Z,43.06
2023-05-04T21:43:43.344Z,42.73
2023-05-04T21:46:11.473Z,42.47
2023-05-04T21:48:37.835Z,41.58
2023-05-04T21:51:04.366Z,41.50
2023-05-04T21:53:33.322Z,42.64
2023-05-04T21:56:07.488Z,43.41
2023-05-04T21:58:34.463Z,43.44
2023-05-04T22:01:00.920Z,43.96
2023-05-04T22:03:28.501Z,43.58
2023-05-04T22:05:57.468Z,43.01
2023-05-04T22:08:24.962Z,41.80
2023-05-04T22:10:52.608Z,42.45
2023-05-04T22:13:19.135Z,42.82
2023-05-04T22:15:50.028Z,43.47
2023-05-04T22:18:17.142Z,43.99
2023-05-04T22:20:43.548Z,44.06
2023-05-04T22:23:10.522Z,43.79
2023-05-04T22:25:36.843Z,44.08
2023-05-04T22:28:03.430Z,44.55
2023-05-04T22:30:29.847Z,44.61
2023-05-04T22:32:56.949Z,45.57
2023-05-04T22:35:23.453Z,45.61
2023-05-04T22:37:50.730Z,45.10
2023-05-04T22:40:17.394Z,46.03
2023-05-04T22:42:46.697Z,45.93
2023-05-04T22:45:14.702Z,45.44
2023-05-04T22:47:41.811Z,44.42
2023-05-04T22:50:09.171Z,45.10
2023-05-04T22:52:35.992Z,46.43
2023-05-04T22:55:02.406Z,47.10
2023-05-04T22:57:28.783Z,47.63
2023-05-04T22:59:55.229Z,47.63
2023-05-04T23:02:21.752Z,47.38
2023-05-04T23:04:48.268Z,48.41
2023-05-04T23:07:14.725Z,48.74
2023-05-04T23:09:45.422Z,48.26
2023-05-04T23:12:12.670Z,48.11
2023-05-04T23:14:39.012Z,48.52
2023-05-04T23:17:05.657Z,48.46
2023-05-04T23:19:32.578Z,49.06
2023-05-04T23:21:59.059Z,49.49
2023-05-04T23:24:25.579Z,49.18
2023-05-04T23:26:52.311Z,49.67
2023-05-04T23:29:19.606Z,49.41
2023-05-04T23:31:46.282Z,49.87
2023-05-04T23:34:13.394Z,49.24
2023-05-04T23:36:39.781Z,48.98
2023-05-04T23:39:06.309Z,49.12
2023-05-04T23:41:32.662Z,48.94
2023-05-04T23:43:59.464Z,49.71
2023-05-04T23:46:25.973Z,49.48
2023-05-04T23:48:52.404Z,50.00
2023-05-04T23:51:19.206Z,50.85
2023-05-04T23:53:45.523Z,50.81
2023-05-04T23:56:12.921Z,51.11
2023-05-04T23:58:39.396Z,51.39
